createdAt,value
2023-01-04T00:12:01.655Z,44.58857
2023-01-04T00:27:03.969Z,4.84658
2023-01-04T00:42:06.330Z,0
2023-01-04T00:57:08.730Z,0
2023-01-04T01:12:11.142Z,0
2023-01-04T01:27:13.347Z,0
2023-01-04T01:42:15.630Z,0
2023-01-04T01:57:17.944Z,0
2023-01-04T02:12:20.249Z,0
2023-01-04T02:27:22.539Z,0
2023-01-04T02:42:25.108Z,1.93863
2023-01-04T02:57:27.739Z,1.93863
2023-01-04T03:12:30.101Z,1.93863
2023-01-04T03:27:32.527Z,1.93863
2023-01-04T03:42:34.882Z,1.93863
2023-01-04T03:57:37.240Z,1.93863
2023-01-04T04:12:39.483Z,1.93863
2023-01-04T04:27:41.778Z,1.93863
2023-01-04T04:42:44.128Z,1.93863
2023-01-04T04:57:46.465Z,1.93863
2023-01-04T05:12:53.025Z,1.93863
2023-01-04T05:27:58.267Z,1.93863
2023-01-04T05:41:23.560Z,1.93863
2023-01-04T05:56:25.884Z,1.93863
2023-01-04T06:11:28.349Z,1.93863
2023-01-04T06:26:30.577Z,0
2023-01-04T06:41:33.047Z,0
2023-01-04T06:56:35.288Z,0
2023-01-04T07:11:37.535Z,0
2023-01-04T07:26:39.794Z,0
2023-01-04T07:41:42.055Z,0
2023-01-04T07:56:44.468Z,0
2023-01-04T08:11:46.680Z,0
2023-01-04T08:26:49.098Z,0
2023-01-04T08:41:58.333Z,0
2023-01-04T08:57:03.597Z,0
2023-01-04T09:12:05.893Z,0
2023-01-04T09:27:08.092Z,0
2023-01-04T09:42:10.459Z,0
2023-01-04T09:57:12.767Z,0
2023-01-04T10:12:15.142Z,0
2023-01-04T10:27:17.401Z,0
2023-01-04T10:42:19.650Z,0
2023-01-04T10:57:22.022Z,0
2023-01-04T11:12:24.246Z,0
2023-01-04T11:27:27.209Z,0
2023-01-04T11:42:29.536Z,0
2023-01-04T11:57:31.737Z,0
2023-01-04T12:12:34.126Z,0
2023-01-04T12:27:36.348Z,0
2023-01-04T12:42:38.841Z,0
2023-01-04T12:57:41.335Z,0
2023-01-04T13:12:43.821Z,0
2023-01-04T13:27:46.211Z,0
2023-01-04T13:42:48.563Z,0
2023-01-04T13:57:50.953Z,0
2023-01-04T14:12:53.286Z,0
2023-01-04T14:27:55.720Z,0
2023-01-04T14:42:57.958Z,0
2023-01-04T14:58:00.664Z,0
2023-01-04T15:13:03.205Z,0.96932
2023-01-04T15:28:05.458Z,13.57043
2023-01-04T15:43:07.693Z,75.6067
2023-01-04T15:58:10.794Z,224.88148
2023-01-04T16:13:12.974Z,496.29016
2023-01-04T16:28:17.874Z,801.62494
2023-01-04T16:43:20.958Z,1234.90955
2023-01-04T16:58:24.253Z,1833.94727
2023-01-04T17:13:27.484Z,2244.9375
2023-01-04T17:28:30.613Z,2558.99609
2023-01-04T17:43:34.813Z,2737.35034
2023-01-04T17:58:37.688Z,3278.22925
2023-01-04T18:28:45.671Z,3927.67139
2023-01-04T18:44:05.876Z,4327.99902
2023-01-04T18:59:25.652Z,4518.95459
2023-01-04T19:14:27.963Z,4155.46094
2023-01-04T19:29:30.376Z,4365.80273
2023-01-04T19:44:32.644Z,4626.54883
2023-01-04T19:59:35.000Z,4852.39941
2023-01-04T20:14:37.365Z,4808.78027
2023-01-04T20:29:39.644Z,5293.43848
2023-01-04T20:44:41.946Z,5502.81104
2023-01-04T20:59:44.213Z,5417.51123
2023-01-04T21:14:46.400Z,5075.34229
2023-01-04T21:29:48.650Z,4320.24463
2023-01-04T21:44:51.633Z,3745.4397
2023-01-04T21:59:54.080Z,3173.54297
2023-01-04T22:14:56.327Z,2694.70044
2023-01-04T22:29:58.562Z,2124.74219
2023-01-04T22:45:00.781Z,1637.1759
2023-01-04T23:00:03.033Z,1318.27075
2023-01-04T23:15:05.342Z,1069.15637
2023-01-04T23:30:07.708Z,771.57611
2023-01-04T23:45:09.924Z,381.9108
